Arequipa, Peru
Current Conditions -  °F | °C
As of 7:00 AM on Tuesday 21 Oct 2014 (Local Time) from SPQU Reporting Station
Scattered Clouds Scattered Clouds  
Wind Chill: 15°   Ceiling: Unl
Heat Index: 15°   Visibility: 6mi
Dew Point:   Wind: 2mph
Humidity: 39%   Direction: NA
Pressure: 30.33"   Gusts: NA
Location:  16.39°S, 71.53°W
Report Text: SPQU 211200Z VRB02KT 9999 SCT100 SCT130 15/01 Q1027 NOSIGRMK PP000
Loading
Personal Weather Stations






























Interactive Weather Map
Tropical Storm Tracking
New forecast layout! Learn more

10-Day Weather Forecast

Advertisements
Track Severe Weather on mobile